Time;durP1;ratioP1;P1;durP2;ratioP2;P2;SDS_P1;SDS_P2;PMS_P1;PMS_P2;Temp;Humidity;BMP_temperature;BMP_pressure;BME280_temperature;BME280_humidity;BME280_pressure;Samples;Min_cycle;Max_cycle;Signal;HPM_P1;HPM_P2
2021/10/29 00:03:53;;;;;;;3.30;2.60;;;18.00;64.10;;;;;;10524767;28;20665;-62
2021/10/29 00:09:15;;;;;;;3.40;2.93;;;18.00;64.10;;;;;;10523113;28;20231;-59
2021/10/29 00:14:39;;;;;;;3.67;2.97;;;18.00;64.20;;;;;;10524958;28;20188;-59
2021/10/29 00:20:01;;;;;;;3.10;2.80;;;18.00;64.00;;;;;;10501228;28;20212;-60
2021/10/29 00:25:23;;;;;;;5.60;3.27;;;18.00;63.90;;;;;;10497099;28;20243;-60
2021/10/29 00:30:46;;;;;;;3.87;2.97;;;18.00;63.90;;;;;;10538199;28;20211;-59
2021/10/29 00:36:09;;;;;;;4.70;3.30;;;18.00;63.80;;;;;;10488796;28;20199;-61
2021/10/29 00:41:33;;;;;;;4.80;3.30;;;18.00;63.90;;;;;;10488801;28;20212;-59
2021/10/29 00:46:57;;;;;;;3.63;3.23;;;18.00;63.90;;;;;;10488345;28;20212;-58
2021/10/29 00:52:19;;;;;;;3.27;2.97;;;18.00;63.90;;;;;;10495879;28;20212;-60
2021/10/29 00:57:41;;;;;;;4.53;3.63;;;18.00;63.60;;;;;;10497748;28;20202;-59
2021/10/29 01:03:05;;;;;;;3.77;2.90;;;18.00;63.50;;;;;;10509530;28;20197;-60
2021/10/29 01:08:27;;;;;;;3.90;3.40;;;18.00;63.50;;;;;;10493936;28;20589;-58
2021/10/29 01:13:50;;;;;;;4.90;3.70;;;18.00;63.50;;;;;;10496960;28;20200;-60
2021/10/29 01:19:13;;;;;;;4.73;4.10;;;18.00;63.50;;;;;;10495167;28;20224;-59
2021/10/29 01:24:37;;;;;;;3.83;3.17;;;17.90;63.50;;;;;;10495900;28;20201;-59
2021/10/29 01:30:00;;;;;;;3.90;3.50;;;17.90;63.50;;;;;;10493261;28;20216;-60
2021/10/29 01:35:22;;;;;;;4.63;3.70;;;17.90;63.40;;;;;;10484481;28;20294;-59
2021/10/29 01:40:45;;;;;;;5.47;4.00;;;17.90;63.30;;;;;;10494141;28;20213;-59
2021/10/29 01:46:08;;;;;;;5.73;3.73;;;17.90;63.20;;;;;;10494261;28;20217;-58
2021/10/29 01:51:30;;;;;;;4.67;3.57;;;17.90;63.20;;;;;;10493823;28;20216;-59
2021/10/29 01:56:54;;;;;;;4.20;3.60;;;17.90;63.00;;;;;;10493288;28;20268;-59
2021/10/29 02:02:16;;;;;;;4.60;4.10;;;17.90;62.90;;;;;;10492132;28;20212;-59
2021/10/29 02:07:38;;;;;;;4.43;4.00;;;17.90;62.80;;;;;;10492797;28;20239;-59
2021/10/29 02:13:01;;;;;;;4.30;3.90;;;17.90;62.80;;;;;;10492270;28;20193;-59
2021/10/29 02:18:24;;;;;;;4.17;3.70;;;17.90;62.70;;;;;;10491822;28;20215;-59
2021/10/29 02:23:46;;;;;;;4.67;4.23;;;17.90;62.70;;;;;;10491741;28;20563;-59
2021/10/29 02:29:09;;;;;;;5.47;3.90;;;17.90;62.70;;;;;;10491996;28;20220;-58
2021/10/29 02:34:31;;;;;;;5.07;4.33;;;17.90;62.70;;;;;;10469166;28;20666;-60
2021/10/29 02:39:53;;;;;;;4.87;4.37;;;17.80;62.50;;;;;;10449979;28;20221;-58
2021/10/29 02:45:17;;;;;;;5.73;4.57;;;17.80;62.50;;;;;;10480523;28;20201;-59
2021/10/29 02:50:39;;;;;;;5.10;4.47;;;17.80;62.60;;;;;;10490256;28;20212;-59
2021/10/29 02:56:01;;;;;;;4.97;4.50;;;17.80;62.50;;;;;;10490092;28;20204;-59
2021/10/29 03:01:25;;;;;;;5.03;4.50;;;17.80;62.50;;;;;;10449187;28;20283;-59
2021/10/29 03:06:47;;;;;;;5.20;4.17;;;17.80;62.50;;;;;;10449394;28;20215;-59
2021/10/29 03:12:10;;;;;;;5.00;4.10;;;17.80;62.50;;;;;;10449508;28;20216;-59
2021/10/29 03:17:33;;;;;;;4.67;4.07;;;17.80;62.50;;;;;;10471502;28;20199;-59
2021/10/29 03:22:56;;;;;;;4.93;4.43;;;17.80;62.60;;;;;;10489943;28;20212;-59
2021/10/29 03:28:18;;;;;;;5.90;5.00;;;17.80;62.10;;;;;;10490730;28;20226;-59
2021/10/29 03:33:41;;;;;;;4.57;4.17;;;17.80;61.80;;;;;;10530452;28;20192;-59
2021/10/29 03:39:06;;;;;;;5.17;4.60;;;17.90;62.10;;;;;;10531257;28;20215;-58
2021/10/29 03:44:39;;;;;;;4.80;4.07;;;17.90;61.80;;;;;;10531045;28;20196;-59
2021/10/29 03:50:14;;;;;;;7.83;3.97;;;17.90;61.40;;;;;;10531352;28;20212;-59
2021/10/29 03:55:39;;;;;;;5.03;4.13;;;18.00;61.90;;;;;;10538396;28;20267;-59
2021/10/29 04:01:01;;;;;;;5.40;4.43;;;18.10;61.30;;;;;;10538712;28;20208;-59
2021/10/29 04:06:24;;;;;;;5.17;4.47;;;18.20;60.40;;;;;;10539372;28;20212;-59
2021/10/29 04:11:46;;;;;;;6.40;4.50;;;18.20;59.60;;;;;;10538011;28;20220;-59
2021/10/29 04:17:08;;;;;;;5.93;5.10;;;18.20;59.40;;;;;;10513783;28;20200;-59
2021/10/29 04:22:32;;;;;;;4.80;4.30;;;18.20;59.50;;;;;;10500796;22;20223;-66
2021/10/29 04:27:57;;;;;;;6.13;5.13;;;18.20;59.60;;;;;;10494458;28;20216;-66
2021/10/29 04:33:20;;;;;;;5.30;4.80;;;18.20;59.20;;;;;;10531282;28;20321;-66
2021/10/29 04:38:43;;;;;;;5.97;4.90;;;18.20;59.30;;;;;;10529992;28;20215;-66
2021/10/29 04:44:06;;;;;;;6.60;5.03;;;18.30;59.30;;;;;;10540328;28;20667;-66
2021/10/29 04:49:28;;;;;;;5.33;4.33;;;18.20;59.00;;;;;;10538655;28;20221;-66
2021/10/29 04:54:52;;;;;;;6.27;4.80;;;18.30;59.10;;;;;;10533901;28;20200;-66
2021/10/29 05:00:15;;;;;;;6.20;5.20;;;18.30;58.90;;;;;;10528318;28;20212;-67
2021/10/29 05:05:37;;;;;;;5.10;4.30;;;18.30;58.70;;;;;;10512418;28;20203;-66
2021/10/29 05:11:01;;;;;;;5.83;5.10;;;18.30;58.80;;;;;;10513127;28;20215;-66
2021/10/29 05:16:23;;;;;;;5.47;4.33;;;18.30;58.70;;;;;;10515972;28;20195;-66
2021/10/29 05:21:45;;;;;;;4.90;4.47;;;18.30;58.90;;;;;;10497324;28;20223;-66
2021/10/29 05:27:08;;;;;;;5.20;4.70;;;18.30;59.00;;;;;;10538915;28;20211;-66
2021/10/29 05:32:31;;;;;;;5.07;4.23;;;18.30;58.70;;;;;;10537805;28;20200;-65
2021/10/29 05:37:53;;;;;;;5.40;4.70;;;18.40;58.50;;;;;;10538453;28;20608;-65
2021/10/29 05:43:17;;;;;;;6.73;5.30;;;18.30;59.10;;;;;;10537980;28;20664;-66
2021/10/29 05:48:39;;;;;;;6.37;4.40;;;18.30;58.80;;;;;;10537464;28;20227;-66
2021/10/29 05:54:11;;;;;;;5.57;4.60;;;18.40;58.50;;;;;;10536522;28;20203;-66
2021/10/29 05:59:36;;;;;;;7.00;5.33;;;18.30;58.50;;;;;;10535308;28;20752;-67
2021/10/29 06:04:58;;;;;;;6.43;4.97;;;18.40;58.30;;;;;;10529757;28;20203;-66
2021/10/29 06:10:20;;;;;;;6.37;5.13;;;18.30;58.40;;;;;;10536438;28;20227;-65
2021/10/29 06:15:46;;;;;;;7.03;5.13;;;18.30;58.60;;;;;;10504808;28;20196;-66
2021/10/29 06:21:09;;;;;;;7.57;5.27;;;18.30;58.20;;;;;;10536171;28;20211;-66
2021/10/29 06:26:41;;;;;;;5.20;4.50;;;18.40;58.10;;;;;;10508381;28;20223;-66
2021/10/29 06:32:06;;;;;;;5.57;4.43;;;18.30;58.10;;;;;;10502645;28;21213;-65
2021/10/29 06:37:29;;;;;;;7.90;4.80;;;18.30;58.40;;;;;;10516404;28;20246;-65
2021/10/29 06:42:55;;;;;;;6.00;4.90;;;18.40;58.40;;;;;;10517581;28;20196;-65
2021/10/29 06:48:24;;;;;;;5.70;4.77;;;18.40;58.40;;;;;;10527503;28;20606;-65
2021/10/29 06:59:33;;;;;;;6.70;4.97;;;18.30;58.00;;;;;;10525834;28;20706;-65
2021/10/29 07:44:42;;;;;;;5.93;3.83;;;18.50;61.00;;;;;;10515114;28;20203;-66
2021/10/29 07:50:07;;;;;;;5.53;3.93;;;18.40;61.20;;;;;;10531057;28;20216;-66
2021/10/29 07:55:31;;;;;;;5.13;3.83;;;18.40;61.70;;;;;;10521016;28;20555;-66
2021/10/29 08:00:53;;;;;;;4.63;3.53;;;18.40;61.60;;;;;;10516449;28;20232;-66
2021/10/29 08:06:15;;;;;;;4.33;3.47;;;18.50;61.50;;;;;;10538593;28;20211;-63
2021/10/29 08:11:39;;;;;;;4.53;3.77;;;18.50;61.50;;;;;;10526348;28;20216;-65
2021/10/29 08:17:01;;;;;;;4.67;4.00;;;18.50;61.10;;;;;;10526896;28;20289;-66
2021/10/29 08:22:23;;;;;;;8.07;4.10;;;18.50;61.20;;;;;;10533158;28;20227;-66
2021/10/29 08:27:47;;;;;;;6.10;4.37;;;18.50;61.20;;;;;;10520946;28;20220;-66
2021/10/29 08:33:09;;;;;;;4.33;3.50;;;18.50;61.00;;;;;;10522886;28;20197;-64
2021/10/29 08:38:32;;;;;;;6.63;4.33;;;18.50;61.20;;;;;;10528876;28;20701;-65
2021/10/29 08:43:56;;;;;;;7.13;4.40;;;18.40;61.10;;;;;;10517897;28;20277;-66
2021/10/29 08:49:19;;;;;;;9.03;4.23;;;18.40;61.10;;;;;;10514677;28;20952;-66
2021/10/29 08:54:42;;;;;;;5.97;3.40;;;18.80;60.10;;;;;;10529402;28;20505;-66
2021/10/29 09:00:13;;;;;;;5.20;3.53;;;18.60;61.00;;;;;;10513631;28;20212;-67
2021/10/29 09:05:43;;;;;;;5.53;3.53;;;18.50;61.60;;;;;;10513640;28;20895;-67
2021/10/29 09:11:23;;;;;;;4.73;2.63;;;18.50;61.90;;;;;;10524397;28;20338;-67
2021/10/29 09:34:10;;;;;;;4.63;2.80;;;18.40;63.20;;;;;;10503189;28;20621;-65
2021/10/29 09:39:32;;;;;;;2.90;2.67;;;18.40;63.30;;;;;;10508735;28;20268;-66
2021/10/29 09:44:55;;;;;;;4.07;2.70;;;18.40;63.50;;;;;;10501381;28;20199;-67
2021/10/29 09:50:26;;;;;;;3.83;2.73;;;18.40;63.20;;;;;;10510037;28;20567;-66
2021/10/29 09:56:00;;;;;;;3.10;2.27;;;18.40;63.10;;;;;;10527612;28;20195;-69
2021/10/29 10:01:23;;;;;;;5.43;2.57;;;18.40;63.10;;;;;;10533721;28;20204;-66
2021/10/29 10:06:47;;;;;;;3.17;1.90;;;18.50;63.00;;;;;;10508296;28;20201;-65
2021/10/29 10:12:10;;;;;;;2.67;1.80;;;18.40;63.10;;;;;;10524449;28;20294;-66
2021/10/29 10:17:33;;;;;;;3.20;2.10;;;18.40;63.00;;;;;;10508328;28;20196;-66
2021/10/29 10:23:01;;;;;;;3.07;1.90;;;18.50;63.20;;;;;;10572948;22;20226;-67
2021/10/29 10:28:50;;;;;;;3.13;1.90;;;18.50;63.20;;;;;;10572557;28;20215;-67
2021/10/29 10:45:57;;;;;;;1.63;1.53;;;18.50;63.20;;;;;;10586131;27;20195;-67
2021/10/29 10:51:49;;;;;;;2.50;1.90;;;18.50;63.40;;;;;;10573782;28;20237;-67
2021/10/29 10:57:21;;;;;;;3.33;1.77;;;18.50;63.40;;;;;;10576819;27;20191;-67
2021/10/29 11:14:33;;;;;;;3.10;1.90;;;18.50;63.80;;;;;;10578688;28;20534;-67
2021/10/29 11:19:56;;;;;;;2.80;1.70;;;18.50;63.70;;;;;;10607959;28;20207;-68
2021/10/29 11:25:20;;;;;;;2.13;1.67;;;18.50;64.00;;;;;;10584332;28;20191;-68
2021/10/29 11:30:44;;;;;;;2.00;1.80;;;18.50;64.00;;;;;;10579483;28;20230;-68
2021/10/29 11:36:08;;;;;;;1.90;1.70;;;18.40;64.00;;;;;;10584139;28;20657;-67
2021/10/29 11:41:33;;;;;;;2.97;1.80;;;18.50;64.20;;;;;;10609551;28;20602;-69
2021/10/29 11:46:58;;;;;;;2.73;1.80;;;18.40;64.10;;;;;;10602027;28;20558;-68
2021/10/29 11:52:21;;;;;;;1.73;1.50;;;18.50;64.30;;;;;;10584242;28;20218;-67
2021/10/29 11:57:50;;;;;;;5.40;2.17;;;18.50;64.40;;;;;;10591278;28;20265;-68
2021/10/29 12:08:54;;;;;;;2.72;1.90;;;18.50;64.90;;;;;;10564822;28;20507;-68
2021/10/29 12:14:16;;;;;;;2.90;1.70;;;19.30;61.70;;;;;;10582862;27;20576;-69
2021/10/29 12:19:41;;;;;;;2.00;1.50;;;18.80;63.50;;;;;;10580917;27;20225;-65
2021/10/29 12:25:13;;;;;;;2.10;1.63;;;18.70;64.20;;;;;;10595401;27;20573;-68
2021/10/29 12:30:39;;;;;;;1.83;1.60;;;18.60;64.80;;;;;;10586918;27;20682;-67
2021/10/29 12:59:02;;;;;;;2.87;1.77;;;18.50;65.50;;;;;;10582090;27;20214;-68
2021/10/29 13:04:37;;;;;;;1.90;1.67;;;18.50;65.60;;;;;;10595028;27;20230;-67
2021/10/29 13:10:10;;;;;;;2.93;1.73;;;18.50;65.70;;;;;;10577026;27;20211;-66
2021/10/29 13:15:32;;;;;;;1.60;1.50;;;18.50;65.70;;;;;;10579606;27;20286;-66
2021/10/29 13:21:22;;;;;;;2.70;1.33;;;18.50;65.80;;;;;;10586909;27;20362;-67
2021/10/29 13:38:20;;;;;;;3.70;1.60;;;18.50;66.20;;;;;;10584723;27;20240;-67
2021/10/29 13:55:17;;;;;;;5.40;2.23;;;18.40;65.80;;;;;;10580136;27;20198;-68
2021/10/29 14:29:16;;;;;;;2.97;2.07;;;18.40;63.50;;;;;;10560471;27;20304;-71
2021/10/29 14:34:42;;;;;;;2.87;1.90;;;18.40;63.90;;;;;;10583284;27;20401;-69
2021/10/29 14:40:11;;;;;;;3.57;2.00;;;18.40;63.80;;;;;;10563848;27;20570;-67
2021/10/29 14:45:36;;;;;;;3.70;1.90;;;18.30;63.90;;;;;;10582621;27;20202;-69
2021/10/29 15:25:23;;;;;;;1.50;1.40;;;18.50;64.10;;;;;;10572205;28;20206;-67
2021/10/29 15:30:50;;;;;;;2.07;1.53;;;18.50;64.10;;;;;;10567071;28;20725;-67
2021/10/29 15:42:05;;;;;;;1.70;1.60;;;18.50;64.20;;;;;;10575293;28;20283;-67
2021/10/29 15:47:35;;;;;;;1.97;1.70;;;18.50;64.30;;;;;;10576543;28;20188;-67
2021/10/29 15:52:58;;;;;;;1.80;1.53;;;18.50;64.40;;;;;;10582412;28;20207;-67
2021/10/29 15:58:32;;;;;;;1.53;1.43;;;18.50;64.40;;;;;;10583818;28;20566;-67
2021/10/29 16:04:04;;;;;;;2.17;1.50;;;18.50;64.40;;;;;;10584028;28;20225;-68
2021/10/29 16:20:47;;;;;;;2.53;1.87;;;18.50;64.40;;;;;;10582363;22;20640;-65
2021/10/29 16:26:12;;;;;;;1.77;1.33;;;18.50;64.40;;;;;;10499916;28;20212;-69
2021/10/29 16:31:43;;;;;;;2.53;1.90;;;18.50;64.20;;;;;;10499593;28;20220;-63
2021/10/29 16:37:06;;;;;;;1.80;1.60;;;18.50;64.20;;;;;;10503530;28;20196;-64
2021/10/29 16:42:28;;;;;;;2.00;1.30;;;18.50;64.20;;;;;;10504496;28;20208;-65
2021/10/29 16:47:52;;;;;;;2.67;1.70;;;18.50;64.10;;;;;;10537569;28;20542;-66
2021/10/29 16:53:15;;;;;;;2.27;1.70;;;18.50;64.10;;;;;;10525707;28;20188;-64
2021/10/29 16:58:37;;;;;;;1.77;1.60;;;18.50;64.20;;;;;;10538819;28;20200;-65
2021/10/29 17:04:01;;;;;;;1.60;1.50;;;18.50;64.30;;;;;;10537172;28;20191;-65
2021/10/29 17:09:23;;;;;;;2.63;1.80;;;18.50;64.90;;;;;;10537612;28;20219;-66
2021/10/29 17:14:46;;;;;;;1.80;1.70;;;18.60;64.30;;;;;;10538574;28;20684;-64
2021/10/29 17:20:12;;;;;;;4.40;1.87;;;18.60;64.30;;;;;;10535724;28;20234;-65
2021/10/29 17:25:34;;;;;;;1.87;1.50;;;18.60;64.30;;;;;;10528815;28;20772;-66
2021/10/29 17:30:57;;;;;;;2.07;1.70;;;18.50;64.20;;;;;;10500953;28;20433;-66
2021/10/29 17:36:20;;;;;;;2.00;1.70;;;18.50;64.20;;;;;;10494675;28;20685;-66
2021/10/29 17:41:42;;;;;;;3.53;1.90;;;18.50;64.20;;;;;;10492992;28;20212;-65
2021/10/29 17:47:06;;;;;;;2.87;2.10;;;18.50;64.10;;;;;;10498099;28;20192;-65
2021/10/29 17:52:29;;;;;;;2.67;1.90;;;18.50;64.00;;;;;;10508741;28;20646;-66
2021/10/29 17:57:52;;;;;;;2.40;1.77;;;18.60;64.00;;;;;;10499064;28;20203;-65
2021/10/29 18:03:14;;;;;;;2.67;2.40;;;18.50;63.90;;;;;;10502541;28;20196;-64
2021/10/29 18:08:41;;;;;;;3.27;2.27;;;18.60;64.00;;;;;;10493974;28;20299;-65
2021/10/29 18:14:04;;;;;;;2.20;1.90;;;18.50;63.80;;;;;;10492857;28;20571;-65
2021/10/29 18:19:26;;;;;;;3.40;1.83;;;18.50;63.80;;;;;;10495917;28;20328;-67
2021/10/29 18:24:50;;;;;;;2.50;1.87;;;18.50;63.80;;;;;;10529378;28;20187;-65
2021/10/29 18:30:16;;;;;;;1.83;1.70;;;18.60;63.90;;;;;;10493317;28;20793;-67
2021/10/29 18:35:38;;;;;;;2.63;1.87;;;18.60;63.90;;;;;;10493463;28;20189;-65
2021/10/29 18:41:02;;;;;;;2.53;1.93;;;18.60;63.80;;;;;;10494805;28;20745;-65
2021/10/29 18:46:24;;;;;;;3.60;2.00;;;18.50;63.80;;;;;;10504043;28;20192;-66
2021/10/29 18:51:47;;;;;;;3.90;2.00;;;18.50;63.80;;;;;;10532965;28;20211;-66
2021/10/29 18:57:10;;;;;;;2.77;2.10;;;18.60;63.80;;;;;;10530492;28;20557;-66
2021/10/29 19:02:33;;;;;;;2.53;1.77;;;18.60;63.80;;;;;;10496096;28;20286;-66
2021/10/29 19:07:55;;;;;;;2.73;2.20;;;18.60;63.80;;;;;;10485063;28;20246;-66
2021/10/29 19:13:19;;;;;;;4.20;2.20;;;18.60;63.80;;;;;;10484734;28;20233;-66
2021/10/29 19:18:41;;;;;;;2.50;1.97;;;18.60;63.80;;;;;;10527603;28;20685;-66
2021/10/29 19:24:03;;;;;;;2.60;2.20;;;18.60;63.80;;;;;;10522552;28;20215;-66
2021/10/29 19:29:26;;;;;;;3.93;2.20;;;18.60;63.80;;;;;;10513799;28;20224;-66
2021/10/29 19:34:50;;;;;;;7.77;2.27;;;18.60;63.70;;;;;;10498665;28;20207;-66
2021/10/29 19:40:21;;;;;;;2.83;2.37;;;18.60;63.70;;;;;;10501010;28;20674;-66
2021/10/29 19:45:44;;;;;;;4.47;3.03;;;18.60;63.60;;;;;;10535844;28;20283;-67
2021/10/29 19:51:07;;;;;;;2.87;2.40;;;18.60;63.60;;;;;;10540509;28;20215;-66
2021/10/29 19:56:30;;;;;;;3.10;2.50;;;18.60;63.60;;;;;;10540900;28;20202;-65
2021/10/29 20:01:53;;;;;;;2.83;2.27;;;18.60;63.50;;;;;;10518719;28;20245;-66
2021/10/29 20:07:16;;;;;;;3.37;2.87;;;18.60;63.50;;;;;;10499665;28;20227;-67
2021/10/29 20:12:40;;;;;;;3.10;2.30;;;18.60;63.50;;;;;;10497609;28;20217;-65
2021/10/29 20:18:06;;;;;;;3.40;2.73;;;18.60;63.50;;;;;;10497919;28;20385;-65
2021/10/29 20:23:28;;;;;;;3.33;2.80;;;18.60;63.40;;;;;;10502559;28;20204;-65
2021/10/29 20:28:50;;;;;;;3.47;2.47;;;18.60;63.70;;;;;;10535421;28;20584;-66
2021/10/29 20:34:14;;;;;;;3.50;2.83;;;18.60;63.40;;;;;;10536556;28;20202;-66
2021/10/29 20:39:36;;;;;;;2.47;2.07;;;18.60;63.30;;;;;;10516839;28;20216;-67
2021/10/29 20:44:58;;;;;;;3.10;2.73;;;18.60;63.30;;;;;;10517207;28;20199;-67
2021/10/29 20:50:22;;;;;;;4.10;2.70;;;18.50;63.20;;;;;;10519626;28;20208;-65
2021/10/29 20:55:45;;;;;;;5.20;3.03;;;18.50;63.10;;;;;;10519508;28;20191;-65
2021/10/29 21:01:07;;;;;;;3.80;2.70;;;18.50;62.80;;;;;;10517707;28;20204;-65
2021/10/29 21:06:31;;;;;;;4.07;3.47;;;18.50;62.80;;;;;;10517111;28;20667;-68
2021/10/29 21:11:53;;;;;;;4.57;3.43;;;18.40;62.00;;;;;;10515311;28;20219;-65
2021/10/29 21:17:16;;;;;;;4.70;3.57;;;18.40;61.90;;;;;;10523509;28;20680;-65
2021/10/29 21:22:40;;;;;;;4.63;3.50;;;18.30;61.90;;;;;;10510675;28;20585;-65
2021/10/29 21:28:02;;;;;;;3.37;3.07;;;18.30;62.00;;;;;;10537192;28;20191;-65
2021/10/29 21:33:24;;;;;;;5.00;3.40;;;18.20;62.20;;;;;;10515695;28;20578;-66
2021/10/29 21:38:48;;;;;;;3.93;3.47;;;18.20;62.40;;;;;;10502545;28;20222;-66
2021/10/29 21:44:10;;;;;;;5.27;3.27;;;18.20;62.40;;;;;;10517733;28;20197;-67
2021/10/29 21:49:33;;;;;;;4.17;2.90;;;18.20;62.70;;;;;;10499257;28;20211;-67
2021/10/29 21:54:56;;;;;;;5.13;3.00;;;18.20;62.90;;;;;;10536926;28;20210;-67
2021/10/29 22:00:41;;;;;;;6.27;3.23;;;18.20;62.30;;;;;;10503644;28;20207;-65
2021/10/29 22:06:05;;;;;;;5.87;3.20;;;18.30;62.00;;;;;;10492345;28;20731;-67
2021/10/29 22:11:28;;;;;;;4.23;2.90;;;18.20;62.00;;;;;;10494652;28;20235;-66
2021/10/29 22:16:50;;;;;;;4.60;3.00;;;18.20;62.10;;;;;;10519267;28;20207;-67
2021/10/29 22:22:12;;;;;;;3.60;2.83;;;18.10;62.10;;;;;;10535913;22;20228;-63
2021/10/29 22:27:37;;;;;;;3.40;2.87;;;18.20;62.40;;;;;;10515646;28;20204;-63
2021/10/29 22:32:59;;;;;;;3.67;2.87;;;18.20;62.70;;;;;;10495132;28;20252;-62
2021/10/29 22:38:21;;;;;;;5.37;2.87;;;18.20;62.80;;;;;;10494468;28;20193;-63
2021/10/29 22:43:44;;;;;;;4.33;3.17;;;18.30;62.20;;;;;;10503159;28;20754;-63
2021/10/29 22:49:06;;;;;;;3.33;2.83;;;18.30;62.00;;;;;;10492140;28;20196;-62
2021/10/29 22:54:29;;;;;;;3.47;2.70;;;18.20;61.90;;;;;;10492642;28;20217;-63
2021/10/29 22:59:52;;;;;;;7.07;3.07;;;18.10;62.00;;;;;;10485932;28;20293;-62
2021/10/29 23:05:17;;;;;;;3.00;2.50;;;18.10;62.10;;;;;;10515466;28;20191;-61
2021/10/29 23:10:41;;;;;;;2.93;2.60;;;18.10;62.30;;;;;;10534260;28;20242;-62
2021/10/29 23:16:04;;;;;;;4.03;2.93;;;18.10;62.00;;;;;;10485412;28;20203;-63
2021/10/29 23:21:27;;;;;;;5.17;2.90;;;18.20;61.90;;;;;;10510374;28;20230;-63
2021/10/29 23:26:49;;;;;;;3.33;2.60;;;18.10;61.80;;;;;;10504588;28;20201;-60
2021/10/29 23:32:12;;;;;;;2.60;2.40;;;18.10;61.80;;;;;;10504016;28;20216;-60
2021/10/29 23:37:34;;;;;;;3.17;2.73;;;18.10;61.90;;;;;;10525406;28;20196;-63
2021/10/29 23:42:56;;;;;;;3.17;2.10;;;18.00;62.00;;;;;;10492657;28;20235;-62
2021/10/29 23:48:20;;;;;;;3.13;2.30;;;18.10;62.20;;;;;;10491297;28;20208;-63
2021/10/29 23:53:42;;;;;;;4.03;2.50;;;18.10;62.50;;;;;;10490017;28;20231;-63
2021/10/29 23:59:04;;;;;;;3.53;2.73;;;18.10;62.30;;;;;;10554594;28;20192;-63
